Time;durP1;ratioP1;P1;durP2;ratioP2;P2;SDS_P1;SDS_P2;PMS_P1;PMS_P2;Temp;Humidity;BMP_temperature;BMP_pressure;BME280_temperature;BME280_humidity;BME280_pressure;Samples;Min_cycle;Max_cycle;Signal;HPM_P1;HPM_P2
2022/03/10 00:00:22;;;;;;;;;;;;;;;6.87;38.89;100452.88;4414036;32;20025;-74
2022/03/10 00:02:49;;;;;;;;;;;;;;;6.90;38.25;100453.87;4422810;32;19993;-73
2022/03/10 00:05:18;;;;;;;;;;;;;;;6.57;39.07;100461.06;4413880;32;19989;-73
2022/03/10 00:07:45;;;;;;;;;;;;;;;6.93;37.69;100459.16;4414144;32;19970;-73
2022/03/10 00:10:12;;;;;;;;;;;;;;;7.08;37.31;100458.00;4415134;32;19981;-73
2022/03/10 00:12:47;;;;;;;;;;;;;;;6.88;38.07;100460.66;4423137;32;20777;-73
2022/03/10 00:15:14;;;;;;;;;;;;;;;6.86;37.58;100462.31;4418973;32;20004;-73
2022/03/10 00:17:41;;;;;;;;;;;;;;;6.66;38.09;100468.31;4423578;32;20001;-73
2022/03/10 00:20:08;;;;;;;;;;;;;;;6.91;38.03;100465.06;4416055;32;19978;-73
2022/03/10 00:22:47;;;;;;;;;;;;;;;6.68;38.28;100472.72;4421085;32;20290;-73
2022/03/10 00:25:14;;;;;;;;;;;;;;;6.84;37.44;100471.66;4425464;32;19981;-73
2022/03/10 00:27:45;;;;;;;;;;;;;;;6.78;37.64;100479.12;4413983;32;20255;-73
2022/03/10 00:30:11;;;;;;;;;;;;;;;6.66;37.97;100473.44;4419065;32;19986;-73
2022/03/10 00:32:42;;;;;;;;;;;;;;;6.73;38.22;100475.47;4429718;32;20027;-73
2022/03/10 00:35:09;;;;;;;;;;;;;;;6.58;39.57;100485.13;4440750;32;19978;-73
2022/03/10 00:37:36;;;;;;;;;;;;;;;6.51;40.15;100497.72;4440948;32;20355;-73
2022/03/10 00:40:03;;;;;;;;;;;;;;;6.75;39.70;100499.56;4429816;32;20020;-73
2022/03/10 00:42:35;;;;;;;;;;;;;;;6.66;39.92;100499.19;4429458;32;19989;-73
2022/03/10 00:45:01;;;;;;;;;;;;;;;6.71;39.82;100507.97;4433778;32;19989;-73
2022/03/10 00:47:28;;;;;;;;;;;;;;;6.76;39.73;100506.47;4417711;32;19989;-73
2022/03/10 00:49:55;;;;;;;;;;;;;;;6.70;39.21;100501.06;4413986;32;19986;-73
2022/03/10 00:52:22;;;;;;;;;;;;;;;6.48;39.75;100515.59;4433925;32;20031;-73
2022/03/10 00:54:49;;;;;;;;;;;;;;;6.50;39.95;100508.81;4415874;32;19983;-74
2022/03/10 00:57:16;;;;;;;;;;;;;;;6.33;40.44;100525.22;4434227;32;19988;-73
2022/03/10 00:59:42;;;;;;;;;;;;;;;6.21;40.35;100535.81;4431720;32;20716;-73
2022/03/10 01:02:10;;;;;;;;;;;;;;;6.39;40.11;100535.75;4426499;32;19974;-73
2022/03/10 01:04:37;;;;;;;;;;;;;;;6.40;40.44;100540.09;4417038;32;20318;-73
2022/03/10 01:07:05;;;;;;;;;;;;;;;6.31;40.36;100544.81;4435850;32;20338;-73
2022/03/10 01:09:32;;;;;;;;;;;;;;;6.35;40.34;100548.41;4416863;32;19978;-72
2022/03/10 01:11:59;;;;;;;;;;;;;;;6.20;41.08;100546.03;4416453;32;19981;-73
2022/03/10 01:14:25;;;;;;;;;;;;;;;6.34;40.21;100552.66;4420204;32;19974;-73
2022/03/10 01:16:52;;;;;;;;;;;;;;;6.21;40.53;100558.06;4420125;32;20035;-74
2022/03/10 01:19:19;;;;;;;;;;;;;;;6.28;40.36;100557.53;4416198;32;20631;-73
2022/03/10 01:21:46;;;;;;;;;;;;;;;6.30;40.40;100555.94;4415870;32;19999;-73
2022/03/10 01:24:15;;;;;;;;;;;;;;;6.26;39.85;100554.03;4415220;32;20049;-73
2022/03/10 01:26:41;;;;;;;;;;;;;;;6.33;39.97;100550.91;4416463;32;19986;-73
2022/03/10 01:29:08;;;;;;;;;;;;;;;6.13;40.94;100550.03;4282229;32;19978;-73
2022/03/10 01:31:36;;;;;;;;;;;;;;;5.98;41.43;100547.62;4415987;32;19973;-72
2022/03/10 01:34:03;;;;;;;;;;;;;;;6.05;41.27;100554.81;4422111;32;20394;-73
2022/03/10 01:36:32;;;;;;;;;;;;;;;5.96;41.31;100553.50;4417762;32;20065;-73
2022/03/10 01:39:03;;;;;;;;;;;;;;;6.17;40.84;100551.06;4416072;32;19982;-73
2022/03/10 01:41:32;;;;;;;;;;;;;;;6.17;40.89;100557.06;4417813;32;19988;-73
2022/03/10 01:44:06;;;;;;;;;;;;;;;5.96;41.34;100564.66;4420628;32;19978;-73
2022/03/10 01:46:35;;;;;;;;;;;;;;;5.85;41.98;100570.09;4422488;32;20352;-73
2022/03/10 01:49:03;;;;;;;;;;;;;;;5.85;41.77;100570.97;4417607;32;20031;-73
2022/03/10 01:51:30;;;;;;;;;;;;;;;5.65;42.37;100571.72;4419550;32;19998;-73
2022/03/10 01:53:57;;;;;;;;;;;;;;;5.73;41.87;100580.66;4433421;32;19990;-73
2022/03/10 01:56:24;;;;;;;;;;;;;;;5.96;40.89;100580.06;4418550;32;19966;-73
2022/03/10 01:58:53;;;;;;;;;;;;;;;5.83;41.41;100577.72;4424609;32;20049;-73
2022/03/10 02:01:21;;;;;;;;;;;;;;;5.91;41.18;100584.09;4416069;32;20028;-73
2022/03/10 02:03:48;;;;;;;;;;;;;;;5.91;41.26;100581.53;4422450;32;19977;-74
2022/03/10 02:06:15;;;;;;;;;;;;;;;5.96;41.22;100585.22;4417475;32;20019;-73
2022/03/10 02:11:28;;;;;;;;;;;;;;;6.05;41.23;100580.50;4419698;32;19973;-73
2022/03/10 02:13:55;;;;;;;;;;;;;;;5.93;41.63;100597.91;4427127;32;19977;-73
2022/03/10 02:19:08;;;;;;;;;;;;;;;5.95;41.73;100598.88;4415797;32;20010;-74
2022/03/10 02:21:34;;;;;;;;;;;;;;;5.77;42.25;100600.56;4415501;32;20000;-74
2022/03/10 02:24:01;;;;;;;;;;;;;;;5.71;42.46;100595.12;4416052;32;19996;-73
2022/03/10 02:26:28;;;;;;;;;;;;;;;5.79;42.10;100601.50;4416634;32;19997;-74
2022/03/10 02:28:55;;;;;;;;;;;;;;;5.75;42.30;100605.63;4423096;32;19978;-73
2022/03/10 02:31:21;;;;;;;;;;;;;;;5.90;42.18;100608.03;4414499;32;19994;-73
2022/03/10 02:33:48;;;;;;;;;;;;;;;5.63;42.77;100617.88;4415379;32;19988;-74
2022/03/10 02:36:17;;;;;;;;;;;;;;;5.79;42.01;100619.50;4421970;32;20307;-74
2022/03/10 02:38:44;;;;;;;;;;;;;;;5.60;42.44;100615.16;4409785;32;19982;-74
2022/03/10 02:41:11;;;;;;;;;;;;;;;5.66;42.57;100627.44;4409613;32;19997;-74
2022/03/10 02:43:38;;;;;;;;;;;;;;;5.79;42.38;100627.19;4400556;32;19986;-74
2022/03/10 02:46:05;;;;;;;;;;;;;;;5.82;42.24;100624.78;4408829;32;20047;-73
2022/03/10 02:48:32;;;;;;;;;;;;;;;5.87;42.43;100631.03;4402135;32;20756;-73
2022/03/10 02:50:59;;;;;;;;;;;;;;;5.95;42.22;100624.59;4404819;32;20057;-73
2022/03/10 02:53:26;;;;;;;;;;;;;;;5.74;43.09;100633.78;4413683;32;19990;-74
2022/03/10 02:55:53;;;;;;;;;;;;;;;5.79;42.78;100637.47;4414311;32;20702;-73
2022/03/10 02:58:19;;;;;;;;;;;;;;;5.75;42.97;100635.59;4409911;32;19997;-73
2022/03/10 03:00:46;;;;;;;;;;;;;;;5.84;42.78;100636.03;4400086;32;20396;-73
2022/03/10 03:03:13;;;;;;;;;;;;;;;5.86;42.96;100638.66;4400703;32;20497;-73
2022/03/10 03:05:41;;;;;;;;;;;;;;;5.84;42.93;100646.31;4400745;32;19966;-73
2022/03/10 03:08:08;;;;;;;;;;;;;;;5.82;42.94;100653.91;4403980;32;19986;-74
2022/03/10 03:10:36;;;;;;;;;;;;;;;5.97;42.28;100653.81;4406294;32;20363;-73
2022/03/10 03:13:05;;;;;;;;;;;;;;;5.81;43.39;100652.16;4406840;32;19996;-73
2022/03/10 03:15:32;;;;;;;;;;;;;;;6.03;43.09;100664.37;4400021;32;20017;-73
2022/03/10 03:17:59;;;;;;;;;;;;;;;5.76;44.55;100658.75;4400271;32;20343;-73
2022/03/10 03:20:26;;;;;;;;;;;;;;;5.89;43.59;100665.38;4403999;32;20786;-74
2022/03/10 03:22:53;;;;;;;;;;;;;;;5.99;43.01;100657.31;4415866;32;19993;-74
2022/03/10 03:25:20;;;;;;;;;;;;;;;6.04;43.75;100655.84;4398480;32;19990;-74
2022/03/10 03:27:48;;;;;;;;;;;;;;;6.34;42.51;100658.09;4405282;32;19994;-73
2022/03/10 03:30:15;;;;;;;;;;;;;;;6.16;42.98;100659.78;4399947;32;19991;-73
2022/03/10 03:32:42;;;;;;;;;;;;;;;6.23;42.83;100672.16;4400163;32;20405;-73
2022/03/10 03:35:10;;;;;;;;;;;;;;;6.21;42.99;100673.75;4399917;32;19970;-73
2022/03/10 03:37:37;;;;;;;;;;;;;;;6.41;42.28;100683.25;4405243;32;20013;-73
2022/03/10 03:40:09;;;;;;;;;;;;;;;6.46;42.02;100684.37;4412513;32;20044;-73
2022/03/10 03:42:35;;;;;;;;;;;;;;;6.39;42.58;100684.91;4408178;32;19990;-73
2022/03/10 03:45:03;;;;;;;;;;;;;;;6.23;43.57;100692.72;4406955;32;20020;-74
2022/03/10 03:47:30;;;;;;;;;;;;;;;5.98;44.52;100691.53;4403680;32;19992;-73
2022/03/10 03:49:57;;;;;;;;;;;;;;;6.25;43.69;100702.28;4402247;32;19998;-74
2022/03/10 03:52:23;;;;;;;;;;;;;;;6.44;43.53;100706.56;4418357;32;20026;-73
2022/03/10 03:54:50;;;;;;;;;;;;;;;6.24;44.56;100709.91;4401966;32;19978;-73
2022/03/10 03:57:17;;;;;;;;;;;;;;;6.32;43.67;100713.72;4406593;32;19982;-73
2022/03/10 03:59:44;;;;;;;;;;;;;;;6.33;43.48;100714.59;4400113;32;19986;-73
2022/03/10 04:02:12;;;;;;;;;;;;;;;6.54;43.04;100715.59;4399869;32;20004;-73
2022/03/10 04:04:39;;;;;;;;;;;;;;;6.51;43.05;100721.47;4402764;32;20283;-74
2022/03/10 04:07:06;;;;;;;;;;;;;;;6.37;44.00;100727.66;4405836;32;20037;-73
2022/03/10 04:09:33;;;;;;;;;;;;;;;6.45;44.37;100726.34;4400214;32;20682;-73
2022/03/10 04:12:00;;;;;;;;;;;;;;;6.57;44.08;100736.28;4400054;32;19982;-73
2022/03/10 04:14:27;;;;;;;;;;;;;;;6.36;45.04;100736.19;4398403;32;20016;-73
2022/03/10 04:16:54;;;;;;;;;;;;;;;6.48;44.58;100736.78;4400043;32;19978;-73
2022/03/10 04:19:21;;;;;;;;;;;;;;;6.54;44.65;100738.75;4399829;32;19997;-73
2022/03/10 04:21:48;;;;;;;;;;;;;;;6.46;45.74;100748.66;4404269;32;19974;-73
2022/03/10 04:24:18;;;;;;;;;;;;;;;6.64;44.69;100745.22;4400194;32;20013;-73
2022/03/10 04:26:45;;;;;;;;;;;;;;;6.67;44.74;100758.22;4408177;32;20121;-73
2022/03/10 04:29:14;;;;;;;;;;;;;;;6.68;44.11;100754.81;4403387;32;20031;-73
2022/03/10 04:31:42;;;;;;;;;;;;;;;6.79;44.11;100753.59;4404960;32;19978;-73
2022/03/10 04:34:09;;;;;;;;;;;;;;;6.76;43.96;100753.47;4404366;32;19979;-73
2022/03/10 04:36:36;;;;;;;;;;;;;;;6.98;43.43;100751.06;4403862;32;19989;-73
2022/03/10 04:39:03;;;;;;;;;;;;;;;6.85;43.86;100759.03;4428483;32;20342;-71
2022/03/10 04:41:30;;;;;;;;;;;;;;;6.81;44.31;100762.28;4416636;32;20334;-71
2022/03/10 04:43:57;;;;;;;;;;;;;;;6.93;44.41;100768.00;4418206;32;19992;-71
2022/03/10 04:46:24;;;;;;;;;;;;;;;6.95;44.56;100776.66;4424187;32;20032;-72
2022/03/10 04:48:51;;;;;;;;;;;;;;;6.81;45.59;100772.59;4425765;32;19989;-71
2022/03/10 04:51:19;;;;;;;;;;;;;;;6.80;46.55;100781.12;4428418;32;19982;-72
2022/03/10 04:53:46;;;;;;;;;;;;;;;6.94;46.37;100790.34;4416889;32;19997;-72
2022/03/10 04:56:13;;;;;;;;;;;;;;;7.08;46.25;100797.81;4422903;32;19982;-72
2022/03/10 04:58:40;;;;;;;;;;;;;;;6.97;46.62;100795.63;4428380;32;19986;-72
2022/03/10 05:01:07;;;;;;;;;;;;;;;6.93;46.60;100793.75;4416731;32;19982;-71
2022/03/10 05:03:34;;;;;;;;;;;;;;;6.88;46.86;100815.78;4420116;32;20318;-73
2022/03/10 05:06:01;;;;;;;;;;;;;;;7.16;45.86;100802.50;4421741;32;20023;-73
2022/03/10 05:08:30;;;;;;;;;;;;;;;7.26;45.71;100803.78;4433141;32;20008;-73
2022/03/10 05:10:58;;;;;;;;;;;;;;;7.30;45.23;100805.69;4443164;32;19992;-73
2022/03/10 05:13:24;;;;;;;;;;;;;;;7.49;44.85;100811.66;4426327;32;19985;-73
2022/03/10 05:15:51;;;;;;;;;;;;;;;7.64;43.35;100822.66;4428162;32;20024;-73
2022/03/10 05:18:18;;;;;;;;;;;;;;;7.73;42.05;100827.31;4417055;32;20335;-73
2022/03/10 05:20:46;;;;;;;;;;;;;;;7.68;42.60;100830.56;4419179;32;20263;-72
2022/03/10 05:23:14;;;;;;;;;;;;;;;7.71;41.33;100829.81;4430995;32;19985;-73
2022/03/10 05:25:41;;;;;;;;;;;;;;;7.55;40.48;100840.28;4432180;32;19977;-72
2022/03/10 05:28:13;;;;;;;;;;;;;;;7.46;39.91;100846.75;4426745;32;19985;-70
2022/03/10 05:30:40;;;;;;;;;;;;;;;7.66;39.01;100839.06;4434878;32;20341;-72
2022/03/10 05:33:08;;;;;;;;;;;;;;;7.62;38.54;100839.72;4429818;32;19978;-72
2022/03/10 05:35:38;;;;;;;;;;;;;;;7.41;38.69;100843.13;4431300;32;19965;-74
2022/03/10 05:38:05;;;;;;;;;;;;;;;7.69;37.97;100852.97;4427782;32;19986;-72
2022/03/10 05:40:32;;;;;;;;;;;;;;;7.57;37.22;100851.53;4424528;32;19974;-73
2022/03/10 05:42:59;;;;;;;;;;;;;;;7.77;36.92;100845.56;4428193;32;19974;-73
2022/03/10 05:45:25;;;;;;;;;;;;;;;7.53;36.98;100852.19;4427808;32;19982;-73
2022/03/10 05:47:53;;;;;;;;;;;;;;;7.21;37.99;100852.53;4425495;32;20007;-73
2022/03/10 05:50:20;;;;;;;;;;;;;;;7.60;37.01;100856.84;4425682;32;20110;-72
2022/03/10 05:52:47;;;;;;;;;;;;;;;7.45;36.67;100852.75;4432087;32;19966;-72
2022/03/10 05:55:15;;;;;;;;;;;;;;;7.75;35.96;100854.91;4431679;32;20303;-72
2022/03/10 05:57:45;;;;;;;;;;;;;;;7.82;35.82;100856.09;4442733;32;19989;-73
2022/03/10 06:00:14;;;;;;;;;;;;;;;7.89;35.10;100856.41;4424627;32;20010;-72
2022/03/10 06:02:41;;;;;;;;;;;;;;;7.71;35.53;100871.06;4420406;32;19994;-73
2022/03/10 06:05:09;;;;;;;;;;;;;;;7.65;35.95;100865.62;4434532;32;19981;-73
2022/03/10 06:07:36;;;;;;;;;;;;;;;7.61;35.40;100869.75;4430942;32;19986;-74
2022/03/10 06:10:03;;;;;;;;;;;;;;;7.66;35.50;100872.56;4434209;32;20119;-73
2022/03/10 06:12:30;;;;;;;;;;;;;;;7.73;34.93;100884.03;4424118;32;20051;-74
2022/03/10 06:14:57;;;;;;;;;;;;;;;7.43;35.64;100889.53;4429656;32;20035;-74
2022/03/10 06:17:24;;;;;;;;;;;;;;;7.24;35.70;100892.97;4426201;32;20329;-75
2022/03/10 06:19:51;;;;;;;;;;;;;;;7.40;35.37;100905.75;4415600;32;20024;-73
2022/03/10 06:22:19;;;;;;;;;;;;;;;7.20;35.91;100906.50;4420554;32;19984;-74
2022/03/10 06:24:46;;;;;;;;;;;;;;;6.43;37.13;100902.81;4443072;32;19977;-75
2022/03/10 06:27:13;;;;;;;;;;;;;;;6.52;37.04;100907.56;4435812;32;19986;-74
2022/03/10 06:29:40;;;;;;;;;;;;;;;6.83;36.68;100904.78;4418746;32;20779;-77
2022/03/10 06:32:09;;;;;;;;;;;;;;;6.63;37.27;100913.22;4422006;32;19974;-73
2022/03/10 06:34:39;;;;;;;;;;;;;;;6.71;37.35;100910.22;4416033;32;20005;-73
2022/03/10 06:37:05;;;;;;;;;;;;;;;6.71;37.55;100920.50;4323569;32;20354;-74
2022/03/10 06:39:33;;;;;;;;;;;;;;;6.77;38.04;100919.94;4424598;32;20249;-73
2022/03/10 06:42:00;;;;;;;;;;;;;;;6.62;38.04;100925.19;4414609;32;20011;-75
2022/03/10 06:44:27;;;;;;;;;;;;;;;6.67;38.30;100938.31;4417780;32;20031;-76
2022/03/10 06:46:54;;;;;;;;;;;;;;;6.79;38.09;100938.87;4424632;32;20323;-74
2022/03/10 06:49:21;;;;;;;;;;;;;;;6.70;38.35;100938.44;4414593;32;20055;-75
2022/03/10 06:51:48;;;;;;;;;;;;;;;7.12;37.50;100939.63;4414127;32;19974;-74
2022/03/10 06:54:16;;;;;;;;;;;;;;;7.18;36.83;100939.06;4415098;32;19997;-76
2022/03/10 06:56:43;;;;;;;;;;;;;;;7.16;36.61;100943.25;4414634;32;20035;-77
2022/03/10 06:59:09;;;;;;;;;;;;;;;7.19;36.53;100945.97;4415522;32;19981;-74
2022/03/10 07:01:37;;;;;;;;;;;;;;;7.34;36.25;100957.00;4420498;32;20005;-77
2022/03/10 07:04:04;;;;;;;;;;;;;;;7.34;36.44;100951.84;4430044;32;19977;-75
2022/03/10 07:06:30;;;;;;;;;;;;;;;7.36;36.24;100960.50;4428475;32;19978;-74
2022/03/10 07:08:57;;;;;;;;;;;;;;;7.32;36.50;100958.59;4418676;32;19986;-73
2022/03/10 07:11:25;;;;;;;;;;;;;;;7.29;36.49;100962.72;4415730;32;20016;-77
2022/03/10 07:13:52;;;;;;;;;;;;;;;7.13;36.94;100958.53;4422747;32;20107;-75
2022/03/10 07:16:19;;;;;;;;;;;;;;;7.28;36.55;100972.16;4416363;32;19993;-74
2022/03/10 07:18:51;;;;;;;;;;;;;;;7.17;36.75;100973.31;4414369;32;20709;-74
2022/03/10 07:21:18;;;;;;;;;;;;;;;7.65;35.50;100974.72;4415483;32;19997;-74
2022/03/10 07:23:45;;;;;;;;;;;;;;;7.70;35.40;100980.13;4419448;32;19986;-74
2022/03/10 07:26:12;;;;;;;;;;;;;;;7.56;35.57;100981.16;4426683;32;19984;-76
2022/03/10 07:28:39;;;;;;;;;;;;;;;7.36;35.50;100981.09;4424084;32;19981;-72
2022/03/10 07:31:06;;;;;;;;;;;;;;;7.79;35.01;100983.13;4430203;32;20000;-75
2022/03/10 07:33:33;;;;;;;;;;;;;;;7.49;35.34;100981.69;4429686;32;20039;-72
2022/03/10 07:36:00;;;;;;;;;;;;;;;7.81;35.24;100986.63;4430266;32;19977;-73
2022/03/10 07:38:27;;;;;;;;;;;;;;;7.50;35.10;100988.59;4414827;32;20268;-72
2022/03/10 07:40:54;;;;;;;;;;;;;;;8.00;34.14;100977.16;4414208;32;20027;-72
2022/03/10 07:43:21;;;;;;;;;;;;;;;8.03;34.28;100983.31;4419986;32;20020;-72
2022/03/10 07:45:50;;;;;;;;;;;;;;;7.86;34.44;100980.00;4421813;32;19992;-73
2022/03/10 07:48:18;;;;;;;;;;;;;;;8.11;34.21;100983.69;4396311;32;20051;-74
2022/03/10 07:50:45;;;;;;;;;;;;;;;8.24;32.99;100992.84;4399804;32;19974;-77
2022/03/10 07:53:12;;;;;;;;;;;;;;;8.29;32.98;100989.63;4400517;32;19990;-75
2022/03/10 07:55:38;;;;;;;;;;;;;;;8.53;32.03;100981.22;4407393;32;19986;-74
2022/03/10 07:58:05;;;;;;;;;;;;;;;8.63;32.32;100979.91;4399919;32;19982;-74
2022/03/10 08:00:32;;;;;;;;;;;;;;;8.97;32.34;100985.66;4407979;32;19974;-74
2022/03/10 08:02:59;;;;;;;;;;;;;;;9.40;31.13;100981.31;4400065;32;19974;-76
2022/03/10 08:05:26;;;;;;;;;;;;;;;10.03;30.09;100971.66;4399325;32;20029;-76
2022/03/10 08:07:53;;;;;;;;;;;;;;;10.12;30.05;100977.16;4402106;32;20485;-74
2022/03/10 08:10:20;;;;;;;;;;;;;;;10.49;29.11;100983.66;4408775;32;19996;-76
2022/03/10 08:12:47;;;;;;;;;;;;;;;10.24;28.57;100987.97;4409726;32;19974;-77
2022/03/10 08:15:20;;;;;;;;;;;;;;;10.50;28.85;100984.53;4402153;32;19982;-76
2022/03/10 08:17:48;;;;;;;;;;;;;;;10.56;28.74;100985.66;4401389;32;20940;-76
2022/03/10 08:20:14;;;;;;;;;;;;;;;11.03;27.77;100991.53;4401602;32;19988;-77
2022/03/10 08:22:41;;;;;;;;;;;;;;;11.23;27.58;100986.09;4401256;32;20767;-75
2022/03/10 08:25:12;;;;;;;;;;;;;;;11.10;27.36;100987.41;4412290;32;20025;-73
2022/03/10 08:27:39;;;;;;;;;;;;;;;11.30;27.04;100995.84;4401463;32;19982;-74
2022/03/10 08:30:06;;;;;;;;;;;;;;;11.07;26.68;100993.41;4104867;32;10000875;-74
2022/03/10 08:32:33;;;;;;;;;;;;;;;11.66;25.87;100987.44;4413332;32;19982;-74
2022/03/10 08:35:00;;;;;;;;;;;;;;;11.51;26.08;100988.72;4401359;32;20041;-75
2022/03/10 08:37:26;;;;;;;;;;;;;;;11.77;25.58;100986.03;4409411;32;19985;-76
2022/03/10 08:39:54;;;;;;;;;;;;;;;11.81;25.44;100982.72;4401306;32;19996;-76
2022/03/10 08:42:21;;;;;;;;;;;;;;;11.81;25.86;100987.91;4401208;32;19974;-75
2022/03/10 08:44:48;;;;;;;;;;;;;;;12.13;25.92;100980.22;4414912;32;20120;-74
2022/03/10 08:47:17;;;;;;;;;;;;;;;12.29;24.92;100974.59;4248836;32;5086552;-76
2022/03/10 08:49:44;;;;;;;;;;;;;;;12.28;24.97;100980.59;4404712;32;20076;-77
2022/03/10 08:52:11;;;;;;;;;;;;;;;12.37;24.49;100980.84;4416416;32;20369;-74
2022/03/10 08:54:39;;;;;;;;;;;;;;;12.57;24.15;100977.09;4427892;32;20031;-76
2022/03/10 08:57:27;;;;;;;;;;;;;;;12.13;24.38;100980.22;4425974;32;20798;-74
2022/03/10 08:59:55;;;;;;;;;;;;;;;12.55;24.42;100981.34;4410350;32;19992;-74
2022/03/10 09:02:24;;;;;;;;;;;;;;;12.40;24.21;100980.94;4410510;32;20040;-73
2022/03/10 09:05:14;;;;;;;;;;;;;;;12.60;24.17;100980.59;4411571;32;19978;-74
2022/03/10 09:07:45;;;;;;;;;;;;;;;12.74;24.11;100987.03;4413367;32;20035;-76
2022/03/10 09:10:12;;;;;;;;;;;;;;;12.90;23.07;100988.31;4417777;32;19994;-77
2022/03/10 09:12:39;;;;;;;;;;;;;;;12.90;22.47;100994.38;4413692;32;20001;-73
2022/03/10 09:15:06;;;;;;;;;;;;;;;13.00;21.18;100983.38;4406351;32;19995;-75
2022/03/10 09:17:33;;;;;;;;;;;;;;;12.12;22.10;100999.19;4408410;32;19977;-74
2022/03/10 09:20:00;;;;;;;;;;;;;;;12.41;20.98;100992.22;4407505;32;19982;-73
2022/03/10 09:22:28;;;;;;;;;;;;;;;12.20;20.84;100987.31;4402926;32;20334;-76
2022/03/10 09:24:55;;;;;;;;;;;;;;;12.17;21.28;101000.22;4400924;32;19993;-75
2022/03/10 09:27:22;;;;;;;;;;;;;;;12.59;20.53;101007.41;4401001;32;19996;-73
2022/03/10 09:29:48;;;;;;;;;;;;;;;12.38;21.28;101005.09;4409688;32;19986;-74
2022/03/10 09:32:16;;;;;;;;;;;;;;;12.07;20.35;101002.53;4403350;32;20349;-74
2022/03/10 09:34:43;;;;;;;;;;;;;;;11.96;21.06;101008.25;4404227;32;20065;-73
2022/03/10 09:37:11;;;;;;;;;;;;;;;12.25;20.89;101007.38;4412217;32;19986;-75
2022/03/10 09:39:38;;;;;;;;;;;;;;;11.24;21.22;100995.66;4409284;32;20533;-75
2022/03/10 09:42:05;;;;;;;;;;;;;;;11.90;21.55;101014.16;4399663;32;19994;-78
2022/03/10 09:44:35;;;;;;;;;;;;;;;12.21;20.76;101004.66;4405699;32;20000;-75
2022/03/10 09:47:03;;;;;;;;;;;;;;;12.31;21.17;101011.84;4406320;32;19974;-75
2022/03/10 09:49:36;;;;;;;;;;;;;;;12.49;20.79;101001.97;4399115;32;19982;-75
2022/03/10 09:52:03;;;;;;;;;;;;;;;12.70;20.71;101017.25;4401952;32;20036;-74
2022/03/10 09:54:30;;;;;;;;;;;;;;;12.45;20.51;101005.34;4403810;32;20720;-73
2022/03/10 09:56:57;;;;;;;;;;;;;;;12.31;19.99;101012.72;4401335;32;20703;-75
2022/03/10 09:59:27;;;;;;;;;;;;;;;12.94;19.78;101011.78;4412344;32;19986;-74
2022/03/10 10:01:57;;;;;;;;;;;;;;;12.60;20.28;101009.16;4401109;32;20023;-76
2022/03/10 10:04:24;;;;;;;;;;;;;;;12.79;20.81;101003.59;4412457;32;19991;-77
2022/03/10 10:07:01;;;;;;;;;;;;;;;12.95;19.41;101008.34;4401059;32;20024;-76
2022/03/10 10:09:40;;;;;;;;;;;;;;;12.68;19.80;101007.66;4410444;32;20008;-76
2022/03/10 10:12:08;;;;;;;;;;;;;;;12.76;20.01;101011.31;4401233;32;19967;-74
2022/03/10 10:14:36;;;;;;;;;;;;;;;12.45;19.49;101007.94;4411132;32;20252;-73
2022/03/10 10:17:03;;;;;;;;;;;;;;;12.77;19.84;101018.28;4286733;32;20043;-74
2022/03/10 10:19:34;;;;;;;;;;;;;;;12.28;18.44;101017.88;4431345;32;19986;-73
2022/03/10 10:22:23;;;;;;;;;;;;;;;12.88;19.08;101021.16;4426750;32;19970;-73
2022/03/10 10:24:57;;;;;;;;;;;;;;;12.97;19.37;101032.66;4416475;32;19986;-75
2022/03/10 10:27:25;;;;;;;;;;;;;;;12.94;18.58;101031.72;4416396;32;20038;-74
2022/03/10 10:29:54;;;;;;;;;;;;;;;12.48;18.96;101030.50;4393323;32;19986;-74
2022/03/10 10:32:34;;;;;;;;;;;;;;;12.00;21.79;101021.38;4392584;32;19985;-75
2022/03/10 10:35:08;;;;;;;;;;;;;;;12.12;20.61;101030.34;4389129;32;19993;-73
2022/03/10 10:37:36;;;;;;;;;;;;;;;12.34;18.97;101032.72;4393459;32;20024;-78
2022/03/10 10:40:07;;;;;;;;;;;;;;;12.42;18.54;101031.22;4398137;32;20275;-76
2022/03/10 10:42:35;;;;;;;;;;;;;;;12.41;18.03;101029.47;4385614;32;20013;-75
2022/03/10 10:45:02;;;;;;;;;;;;;;;12.65;18.31;101025.75;4390015;32;20693;-77
2022/03/10 10:47:29;;;;;;;;;;;;;;;12.94;17.92;101037.78;4400321;32;19982;-78
2022/03/10 10:50:01;;;;;;;;;;;;;;;12.67;18.41;101021.50;4411442;32;19994;-78
2022/03/10 10:52:37;;;;;;;;;;;;;;;12.78;18.87;101025.25;4400824;32;19974;-75
2022/03/10 10:55:09;;;;;;;;;;;;;;;12.94;17.71;101022.19;4401015;32;19994;-78
2022/03/10 10:57:36;;;;;;;;;;;;;;;12.99;18.02;101031.00;4396280;32;20117;-78
2022/03/10 11:00:10;;;;;;;;;;;;;;;12.83;17.60;101033.13;4398480;32;19987;-75
2022/03/10 11:02:45;;;;;;;;;;;;;;;12.40;17.53;101032.88;4400950;32;19979;-78
2022/03/10 11:05:14;;;;;;;;;;;;;;;12.87;17.85;101025.47;4399469;32;19982;-76
2022/03/10 11:07:41;;;;;;;;;;;;;;;13.06;17.13;101025.97;4388401;32;19994;-76
2022/03/10 11:10:09;;;;;;;;;;;;;;;12.87;17.65;101030.69;4391205;32;19990;-77
2022/03/10 11:12:39;;;;;;;;;;;;;;;13.04;17.93;101023.31;4393222;32;20045;-78
2022/03/10 11:15:07;;;;;;;;;;;;;;;12.92;17.30;101023.91;4425781;32;20303;-74
2022/03/10 11:17:34;;;;;;;;;;;;;;;12.74;17.01;101015.63;4435421;32;19997;-79
2022/03/10 11:20:06;;;;;;;;;;;;;;;12.91;17.85;101022.12;4426614;32;19993;-76
2022/03/10 11:22:37;;;;;;;;;;;;;;;12.92;18.12;101018.69;4442062;32;19988;-74
2022/03/10 11:25:07;;;;;;;;;;;;;;;13.05;18.01;101014.69;4441240;32;20448;-75
2022/03/10 11:27:34;;;;;;;;;;;;;;;13.01;18.59;101018.91;4420135;32;20334;-74
2022/03/10 11:30:04;;;;;;;;;;;;;;;12.83;18.57;101028.84;4419567;32;20052;-73
2022/03/10 11:32:31;;;;;;;;;;;;;;;11.39;19.46;101019.44;4433633;32;19973;-73
2022/03/10 11:35:00;;;;;;;;;;;;;;;11.54;22.23;101009.56;4415628;32;19986;-73
2022/03/10 11:37:42;;;;;;;;;;;;;;;12.36;20.15;101010.28;4421334;32;19966;-74
2022/03/10 11:40:10;;;;;;;;;;;;;;;12.72;18.33;101017.28;4427512;32;19985;-74
2022/03/10 11:42:38;;;;;;;;;;;;;;;12.47;18.54;101003.63;4432443;32;19973;-78
2022/03/10 11:45:14;;;;;;;;;;;;;;;12.18;19.10;100996.78;4419955;32;19985;-76
2022/03/10 11:47:41;;;;;;;;;;;;;;;12.71;18.53;101002.53;4422134;32;20282;-78
2022/03/10 11:50:22;;;;;;;;;;;;;;;12.47;18.48;100988.06;4426921;32;20032;-76
2022/03/10 11:52:50;;;;;;;;;;;;;;;12.59;19.14;100991.84;4429477;32;20015;-75
2022/03/10 11:55:17;;;;;;;;;;;;;;;12.38;19.66;100997.31;4439896;32;20001;-77
2022/03/10 11:57:53;;;;;;;;;;;;;;;12.61;20.33;100996.22;4426416;32;19996;-78
2022/03/10 12:00:23;;;;;;;;;;;;;;;12.52;19.30;100986.47;4426343;32;19986;-76
2022/03/10 12:02:57;;;;;;;;;;;;;;;12.82;18.86;100995.88;4417323;32;20368;-75
2022/03/10 12:05:24;;;;;;;;;;;;;;;12.80;19.39;100998.47;4411469;32;19990;-78
2022/03/10 12:07:51;;;;;;;;;;;;;;;13.04;18.83;100990.38;4414721;32;20016;-78
2022/03/10 12:10:18;;;;;;;;;;;;;;;13.13;18.92;100997.53;4424858;32;19982;-75
2022/03/10 12:12:45;;;;;;;;;;;;;;;13.06;18.61;100990.44;4414984;32;19977;-77
2022/03/10 12:15:41;;;;;;;;;;;;;;;12.63;19.02;101004.06;4414541;32;20031;-76
2022/03/10 12:18:15;;;;;;;;;;;;;;;12.86;18.40;100997.75;4414492;32;20257;-77
2022/03/10 12:20:46;;;;;;;;;;;;;;;13.01;18.81;100992.91;4411215;32;20000;-76
2022/03/10 12:23:15;;;;;;;;;;;;;;;12.98;18.82;100987.62;4426267;32;20421;-75
2022/03/10 12:25:55;;;;;;;;;;;;;;;13.25;18.20;100981.41;4412492;32;19990;-77
2022/03/10 12:28:27;;;;;;;;;;;;;;;13.38;18.34;100988.63;4406791;32;19983;-77
2022/03/10 12:31:00;;;;;;;;;;;;;;;13.42;17.92;100985.25;4407055;32;20020;-76
2022/03/10 12:33:28;;;;;;;;;;;;;;;12.68;17.74;100992.06;4399949;32;20037;-76
2022/03/10 12:35:55;;;;;;;;;;;;;;;12.87;17.44;100993.44;4399569;32;20765;-74
2022/03/10 12:38:40;;;;;;;;;;;;;;;12.81;17.71;100988.94;4409730;32;19982;-74
2022/03/10 12:41:08;;;;;;;;;;;;;;;13.17;17.70;100988.97;4401673;32;20585;-74
2022/03/10 12:43:35;;;;;;;;;;;;;;;13.16;17.43;100986.34;4396305;32;20283;-76
2022/03/10 12:46:02;;;;;;;;;;;;;;;13.14;17.26;100983.69;4384852;32;19982;-74
2022/03/10 12:48:46;;;;;;;;;;;;;;;13.34;17.13;100978.16;4389961;32;20378;-76
2022/03/10 12:51:24;;;;;;;;;;;;;;;13.43;17.29;100980.94;4389553;32;20002;-75
2022/03/10 12:53:54;;;;;;;;;;;;;;;13.71;17.08;100977.22;4387348;32;20066;-75